createdAt,value
2023-05-05T00:00:39.122Z,20.08
2023-05-05T00:01:51.849Z,20.07
2023-05-05T00:02:59.986Z,20.06
2023-05-05T00:04:06.910Z,20.06
2023-05-05T00:05:14.075Z,20.06
2023-05-05T00:06:21.348Z,20.07
2023-05-05T00:07:28.255Z,20.07
2023-05-05T00:08:35.048Z,20.07
2023-05-05T00:09:42.586Z,20.06
2023-05-05T00:10:53.528Z,20.07
2023-05-05T00:12:01.139Z,20.06
2023-05-05T00:13:08.349Z,20.06
2023-05-05T00:14:16.645Z,20.06
2023-05-05T00:15:23.669Z,20.07
2023-05-05T00:16:31.321Z,20.07
2023-05-05T00:17:40.083Z,20.07
2023-05-05T00:18:47.587Z,20.06
2023-05-05T00:19:54.758Z,20.07
2023-05-05T00:21:02.056Z,20.07
2023-05-05T00:22:09.885Z,20.07
2023-05-05T00:23:17.925Z,20.07
2023-05-05T00:24:24.810Z,20.08
2023-05-05T00:25:32.501Z,20.07
2023-05-05T00:26:40.659Z,20.07
2023-05-05T00:27:47.727Z,20.07
2023-05-05T00:28:55.534Z,20.08
2023-05-05T00:30:02.421Z,20.08
2023-05-05T00:31:09.997Z,20.08
2023-05-05T00:32:18.117Z,20.08
2023-05-05T00:33:27.147Z,20.08
2023-05-05T00:34:34.658Z,20.08
2023-05-05T00:35:42.559Z,20.08
2023-05-05T00:36:50.653Z,20.08
2023-05-05T00:37:58.378Z,20.08
2023-05-05T00:39:07.035Z,20.08
2023-05-05T00:40:14.671Z,20.08
2023-05-05T00:41:22.095Z,20.08
2023-05-05T00:42:28.951Z,20.08
2023-05-05T00:43:35.760Z,20.08
2023-05-05T00:44:43.500Z,20.08
2023-05-05T00:45:50.529Z,20.08
2023-05-05T00:46:57.920Z,20.09
2023-05-05T00:48:05.406Z,20.08
2023-05-05T00:49:13.058Z,20.08
2023-05-05T00:50:29.004Z,20.08
2023-05-05T00:51:35.781Z,20.08
2023-05-05T00:52:42.678Z,20.08
2023-05-05T00:53:50.026Z,20.08
2023-05-05T00:54:56.718Z,20.08
2023-05-05T00:56:03.635Z,20.08
2023-05-05T00:57:10.884Z,20.08
2023-05-05T00:58:17.749Z,20.08
2023-05-05T00:59:25.667Z,20.08
2023-05-05T01:00:33.750Z,20.08
2023-05-05T01:01:42.357Z,20.08
2023-05-05T01:02:50.009Z,20.07
2023-05-05T01:03:57.157Z,20.07
2023-05-05T01:05:05.911Z,20.07
2023-05-05T01:06:38.359Z,20.07
2023-05-05T01:08:22.269Z,20.06
2023-05-05T01:10:07.284Z,20.04
2023-05-05T01:11:57.109Z,20.04
2023-05-05T01:13:27.973Z,20.03
2023-05-05T01:14:46.658Z,20.03
2023-05-05T01:16:25.369Z,20.02
2023-05-05T01:17:49.613Z,20.03
2023-05-05T01:19:32.026Z,20.03
2023-05-05T01:20:51.603Z,20.02
2023-05-05T01:22:02.313Z,20.02
2023-05-05T01:23:10.545Z,20.03
2023-05-05T01:24:46.287Z,20.03
2023-05-05T01:26:12.248Z,20.02
2023-05-05T01:27:49.113Z,20.02
2023-05-05T01:29:09.965Z,20.03
2023-05-05T01:30:55.773Z,20.03
2023-05-05T01:32:11.767Z,20.02
2023-05-05T01:33:21.692Z,20.02
2023-05-05T01:34:31.226Z,20.02
2023-05-05T01:35:43.313Z,20.03
2023-05-05T01:36:54.665Z,20.02
2023-05-05T01:38:08.199Z,20.03
2023-05-05T01:39:17.532Z,20.04
2023-05-05T01:40:27.785Z,20.04
2023-05-05T01:41:46.350Z,20.04
2023-05-05T01:42:53.025Z,20.05
2023-05-05T01:44:00.857Z,20.06
2023-05-05T01:45:09.188Z,20.06
2023-05-05T01:46:16.138Z,20.07
2023-05-05T01:47:24.039Z,20.07
2023-05-05T01:48:32.464Z,20.08
2023-05-05T01:49:39.727Z,20.08
2023-05-05T01:50:48.817Z,20.08
2023-05-05T01:51:55.502Z,20.08
2023-05-05T01:53:02.808Z,20.09
2023-05-05T01:54:10.570Z,20.08
2023-05-05T01:55:17.988Z,20.09
2023-05-05T01:56:25.538Z,20.08
2023-05-05T01:57:32.960Z,20.08
2023-05-05T01:58:40.413Z,20.09
2023-05-05T01:59:48.308Z,20.08
2023-05-05T02:00:55.409Z,20.09
2023-05-05T02:02:03.847Z,20.09
2023-05-05T02:03:11.097Z,20.09
2023-05-05T02:04:19.159Z,20.09
2023-05-05T02:05:26.595Z,20.08
2023-05-05T02:06:33.653Z,20.08
2023-05-05T02:07:41.649Z,20.08
2023-05-05T02:08:49.486Z,20.08
2023-05-05T02:09:57.176Z,20.08
2023-05-05T02:11:03.972Z,20.08
2023-05-05T02:12:11.317Z,20.07
2023-05-05T02:13:18.282Z,20.07
2023-05-05T02:14:25.660Z,20.07
2023-05-05T02:15:33.151Z,20.07
2023-05-05T02:16:42.750Z,20.07
2023-05-05T02:17:49.689Z,20.07
2023-05-05T02:18:57.029Z,20.07
2023-05-05T02:20:04.679Z,20.07
2023-05-05T02:21:11.484Z,20.06
2023-05-05T02:22:18.399Z,20.07
2023-05-05T02:23:25.713Z,20.07
2023-05-05T02:24:34.555Z,20.06
2023-05-05T02:25:43.979Z,20.06
2023-05-05T02:26:51.921Z,20.06
2023-05-05T02:27:59.094Z,20.06
2023-05-05T02:29:09.061Z,20.06
2023-05-05T02:30:17.801Z,20.05
2023-05-05T02:31:24.791Z,20.05
2023-05-05T02:32:39.530Z,20.06
2023-05-05T02:33:47.386Z,20.05
2023-05-05T02:34:54.618Z,20.05
2023-05-05T02:36:02.027Z,20.05
2023-05-05T02:37:11.574Z,20.04
2023-05-05T02:38:19.551Z,20.04
2023-05-05T02:39:33.485Z,20.05
2023-05-05T02:40:43.285Z,20.04
2023-05-05T02:41:50.546Z,20.04
2023-05-05T02:43:08.174Z,20.03
2023-05-05T02:44:15.304Z,20.05
2023-05-05T02:45:23.106Z,20.06
2023-05-05T02:46:30.016Z,20.06
2023-05-05T02:47:40.328Z,20.07
2023-05-05T02:48:47.369Z,20.06
2023-05-05T02:49:54.440Z,20.07
2023-05-05T02:51:01.018Z,20.07
2023-05-05T02:52:12.467Z,20.07
2023-05-05T02:53:21.789Z,20.07
2023-05-05T02:54:29.168Z,20.07
2023-05-05T02:55:44.870Z,20.07
2023-05-05T02:56:52.674Z,20.08
2023-05-05T02:58:06.791Z,20.07
2023-05-05T02:59:48.793Z,20.08
2023-05-05T03:01:14.034Z,20.07
2023-05-05T03:02:23.843Z,20.07
2023-05-05T03:03:58.615Z,20.07
2023-05-05T03:05:15.122Z,20.07
2023-05-05T03:06:24.786Z,20.06
2023-05-05T03:07:52.252Z,20.07
2023-05-05T03:09:21.131Z,20.06
2023-05-05T03:10:33.030Z,20.05
2023-05-05T03:11:58.775Z,20.05
2023-05-05T03:13:05.596Z,20.05
2023-05-05T03:14:20.459Z,20.05
2023-05-05T03:15:32.891Z,20.04
2023-05-05T03:16:41.600Z,20.04
2023-05-05T03:17:48.566Z,20.04
2023-05-05T03:18:56.091Z,20.04
2023-05-05T03:20:03.899Z,20.07
2023-05-05T03:21:12.070Z,20.12
2023-05-05T03:22:20.837Z,20.17
2023-05-05T03:23:27.772Z,20.23
2023-05-05T03:24:36.972Z,20.28
2023-05-05T03:25:47.826Z,20.34
2023-05-05T03:27:05.992Z,20.41
2023-05-05T03:28:17.069Z,20.47
2023-05-05T03:29:23.745Z,20.52
2023-05-05T03:30:30.543Z,20.58
2023-05-05T03:31:37.445Z,20.63
2023-05-05T03:32:44.127Z,20.69
2023-05-05T03:33:51.376Z,20.74
2023-05-05T03:34:59.730Z,20.79
2023-05-05T03:36:11.004Z,20.84
2023-05-05T03:37:17.738Z,20.90
2023-05-05T03:38:25.287Z,20.95
2023-05-05T03:39:32.625Z,21.00
2023-05-05T03:40:44.236Z,21.05
2023-05-05T03:41:52.671Z,21.10
2023-05-05T03:43:03.050Z,21.14
2023-05-05T03:44:13.182Z,21.19
2023-05-05T03:45:21.378Z,21.24
2023-05-05T03:46:29.498Z,21.28
2023-05-05T03:47:36.758Z,21.33
2023-05-05T03:48:44.354Z,21.37
2023-05-05T03:49:51.824Z,21.41
2023-05-05T03:50:59.356Z,21.46
2023-05-05T03:52:07.757Z,21.50
2023-05-05T03:53:15.126Z,21.53
2023-05-05T03:54:23.094Z,21.57
2023-05-05T03:55:31.193Z,21.61
2023-05-05T03:56:38.433Z,21.65
2023-05-05T03:57:47.051Z,21.69
2023-05-05T03:58:58.227Z,21.73
2023-05-05T04:00:05.688Z,21.77
2023-05-05T04:01:20.702Z,21.80
2023-05-05T04:02:27.658Z,21.84
2023-05-05T04:03:35.137Z,21.88
2023-05-05T04:04:42.386Z,21.91
2023-05-05T04:05:49.489Z,21.94
2023-05-05T04:06:59.592Z,21.99
2023-05-05T04:08:10.075Z,22.02
2023-05-05T04:09:17.659Z,22.06
2023-05-05T04:10:24.641Z,22.09
2023-05-05T04:11:31.684Z,22.12
2023-05-05T04:12:38.598Z,22.15
2023-05-05T04:13:45.940Z,22.19
2023-05-05T04:14:53.258Z,22.21
2023-05-05T04:16:01.066Z,22.24
2023-05-05T04:17:08.750Z,22.28
2023-05-05T04:18:17.387Z,22.31
2023-05-05T04:19:24.985Z,22.34
2023-05-05T04:20:32.789Z,22.37
2023-05-05T04:21:40.983Z,22.40
2023-05-05T04:22:49.116Z,22.44
2023-05-05T04:23:59.277Z,22.47
2023-05-05T04:25:07.096Z,22.50
2023-05-05T04:26:14.487Z,22.54
2023-05-05T04:27:22.984Z,22.56
2023-05-05T04:28:30.636Z,22.60
2023-05-05T04:29:38.246Z,22.63
2023-05-05T04:30:45.377Z,22.66
2023-05-05T04:31:52.419Z,22.70
2023-05-05T04:33:00.070Z,22.73
2023-05-05T04:34:08.504Z,22.76
2023-05-05T04:35:16.943Z,22.79
2023-05-05T04:36:24.398Z,22.82
2023-05-05T04:37:31.939Z,22.85
2023-05-05T04:38:39.735Z,22.88
2023-05-05T04:39:47.862Z,22.90
2023-05-05T04:40:57.043Z,22.93
2023-05-05T04:42:05.252Z,22.96
2023-05-05T04:43:13.692Z,22.99
2023-05-05T04:44:21.272Z,23.02
2023-05-05T04:45:29.377Z,23.05
2023-05-05T04:46:37.920Z,23.07
2023-05-05T04:47:45.384Z,23.10
2023-05-05T04:48:52.441Z,23.13
2023-05-05T04:50:00.883Z,23.16
2023-05-05T04:51:09.219Z,23.18
2023-05-05T04:52:17.695Z,23.20
2023-05-05T04:53:25.272Z,23.23
2023-05-05T04:54:33.134Z,23.25
2023-05-05T04:55:41.341Z,23.28
2023-05-05T04:56:49.641Z,23.30
2023-05-05T04:57:57.548Z,23.33
2023-05-05T04:59:06.299Z,23.35
2023-05-05T05:00:15.412Z,23.38
2023-05-05T05:01:22.648Z,23.40
2023-05-05T05:02:32.857Z,23.43
2023-05-05T05:03:40.143Z,23.45
2023-05-05T05:04:48.441Z,23.47
2023-05-05T05:05:56.944Z,23.50
2023-05-05T05:07:04.712Z,23.52
2023-05-05T05:08:12.551Z,23.54
2023-05-05T05:09:21.322Z,23.56
2023-05-05T05:10:30.104Z,23.59
2023-05-05T05:11:38.932Z,23.61
2023-05-05T05:12:45.894Z,23.62
2023-05-05T05:13:52.710Z,23.65
2023-05-05T05:14:59.797Z,23.68
2023-05-05T05:16:08.352Z,23.69
2023-05-05T05:17:16.867Z,23.72
2023-05-05T05:18:24.666Z,23.73
2023-05-05T05:19:33.912Z,23.75
2023-05-05T05:20:41.817Z,23.78
2023-05-05T05:21:48.962Z,23.80
2023-05-05T05:22:56.980Z,23.82
2023-05-05T05:24:04.208Z,23.83
2023-05-05T05:25:11.906Z,23.86
2023-05-05T05:26:20.204Z,23.87
2023-05-05T05:27:27.926Z,23.89
2023-05-05T05:28:36.515Z,23.92
2023-05-05T05:29:45.563Z,23.94
2023-05-05T05:30:54.117Z,23.95
2023-05-05T05:32:02.116Z,23.97
2023-05-05T05:33:10.254Z,23.99
2023-05-05T05:34:18.126Z,24.01
2023-05-05T05:35:26.602Z,24.03
2023-05-05T05:36:34.397Z,24.05
2023-05-05T05:37:41.493Z,24.07
2023-05-05T05:38:48.556Z,24.09
2023-05-05T05:39:56.689Z,24.10
2023-05-05T05:41:09.118Z,24.12
2023-05-05T05:42:17.151Z,24.14
2023-05-05T05:43:25.014Z,24.15
2023-05-05T05:44:32.517Z,24.17
2023-05-05T05:45:41.057Z,24.18
2023-05-05T05:46:48.411Z,24.21
2023-05-05T05:47:56.063Z,24.22
2023-05-05T05:49:03.157Z,24.24
2023-05-05T05:50:11.107Z,24.26
2023-05-05T05:51:19.678Z,24.27
2023-05-05T05:52:28.188Z,24.28
2023-05-05T05:53:35.870Z,24.30
2023-05-05T05:54:43.020Z,24.32
2023-05-05T05:55:50.539Z,24.34
2023-05-05T05:56:58.389Z,24.35
2023-05-05T05:58:05.420Z,24.37
2023-05-05T05:59:13.188Z,24.38
2023-05-05T06:00:20.771Z,24.40
2023-05-05T06:01:30.507Z,24.41
2023-05-05T06:02:38.706Z,24.43
2023-05-05T06:03:46.585Z,24.44
2023-05-05T06:04:54.614Z,24.47
2023-05-05T06:06:01.502Z,24.48
2023-05-05T06:07:11.469Z,24.50
2023-05-05T06:08:19.110Z,24.51
2023-05-05T06:09:30.594Z,24.53
2023-05-05T06:10:37.896Z,24.54
2023-05-05T06:11:48.705Z,24.55
2023-05-05T06:12:56.879Z,24.56
2023-05-05T06:14:03.734Z,24.58
2023-05-05T06:15:11.609Z,24.60
2023-05-05T06:16:19.775Z,24.62
2023-05-05T06:17:27.535Z,24.63
2023-05-05T06:18:36.055Z,24.65
2023-05-05T06:19:44.495Z,24.67
2023-05-05T06:20:52.372Z,24.68
2023-05-05T06:22:01.136Z,24.69
2023-05-05T06:23:08.688Z,24.70
2023-05-05T06:24:18.471Z,24.72
2023-05-05T06:25:26.604Z,24.73
2023-05-05T06:26:33.801Z,24.75
2023-05-05T06:27:41.562Z,24.77
2023-05-05T06:28:48.503Z,24.78
2023-05-05T06:29:57.033Z,24.79
2023-05-05T06:31:04.868Z,24.81
2023-05-05T06:32:14.967Z,24.81
2023-05-05T06:33:23.402Z,24.83
2023-05-05T06:34:31.058Z,24.84
2023-05-05T06:35:38.463Z,24.86
2023-05-05T06:36:45.529Z,24.88
2023-05-05T06:37:53.120Z,24.89
2023-05-05T06:39:00.688Z,24.91
2023-05-05T06:40:09.270Z,24.92
2023-05-05T06:41:17.594Z,24.93
2023-05-05T06:42:25.179Z,24.94
2023-05-05T06:43:33.403Z,24.95
2023-05-05T06:44:41.031Z,24.97
2023-05-05T06:45:48.155Z,24.99
2023-05-05T06:46:56.596Z,25.00
2023-05-05T06:48:03.720Z,25.02
2023-05-05T06:49:11.516Z,25.03
2023-05-05T06:50:18.509Z,25.05
2023-05-05T06:51:26.493Z,25.06
2023-05-05T06:52:33.864Z,25.07
2023-05-05T06:53:41.414Z,25.09
2023-05-05T06:54:48.231Z,25.10
2023-05-05T06:55:55.362Z,25.11
2023-05-05T06:57:03.116Z,25.12
2023-05-05T06:58:10.537Z,25.13
2023-05-05T06:59:21.093Z,25.15
2023-05-05T07:00:28.918Z,25.16
2023-05-05T07:01:36.136Z,25.18
2023-05-05T07:02:43.583Z,25.19
2023-05-05T07:03:50.597Z,25.20
2023-05-05T07:04:58.012Z,25.21
2023-05-05T07:06:05.693Z,25.23
2023-05-05T07:07:12.414Z,25.23
2023-05-05T07:08:19.288Z,25.25
2023-05-05T07:09:26.161Z,25.26
2023-05-05T07:10:33.179Z,25.27
2023-05-05T07:11:40.050Z,25.29
2023-05-05T07:12:47.324Z,25.30
2023-05-05T07:13:56.927Z,25.31
2023-05-05T07:15:15.499Z,25.33
2023-05-05T07:16:32.574Z,25.34
2023-05-05T07:17:39.935Z,25.35
2023-05-05T07:18:48.256Z,25.37
2023-05-05T07:19:57.655Z,25.38
2023-05-05T07:21:07.251Z,25.39
2023-05-05T07:22:15.011Z,25.40
2023-05-05T07:23:22.963Z,25.41
2023-05-05T07:24:31.231Z,25.43
2023-05-05T07:25:39.075Z,25.44
2023-05-05T07:26:46.283Z,25.45
2023-05-05T07:27:54.451Z,25.46
2023-05-05T07:29:01.592Z,25.47
2023-05-05T07:30:13.967Z,25.49
2023-05-05T07:31:23.740Z,25.50
2023-05-05T07:32:31.569Z,25.51
2023-05-05T07:33:39.412Z,25.53
2023-05-05T07:34:46.943Z,25.54
2023-05-05T07:35:55.098Z,25.55
2023-05-05T07:37:02.252Z,25.55
2023-05-05T07:38:10.874Z,25.57
2023-05-05T07:39:19.601Z,25.59
2023-05-05T07:40:28.840Z,25.60
2023-05-05T07:41:36.292Z,25.61
2023-05-05T07:42:43.251Z,25.62
2023-05-05T07:43:50.027Z,25.63
2023-05-05T07:44:58.493Z,25.65
2023-05-05T07:46:05.876Z,25.66
2023-05-05T07:47:13.885Z,25.67
2023-05-05T07:48:21.758Z,25.68
2023-05-05T07:49:30.215Z,25.69
2023-05-05T07:50:38.714Z,25.71
2023-05-05T07:51:46.114Z,25.72
2023-05-05T07:52:59.390Z,25.73
2023-05-05T07:54:18.074Z,25.74
2023-05-05T07:55:26.226Z,25.75
2023-05-05T07:56:34.378Z,25.76
2023-05-05T07:57:42.525Z,25.78
2023-05-05T07:58:49.740Z,25.79
2023-05-05T07:59:57.739Z,25.80
2023-05-05T08:01:08.310Z,25.80
2023-05-05T08:02:16.793Z,25.82
2023-05-05T08:03:26.280Z,25.83
2023-05-05T08:04:33.493Z,25.85
2023-05-05T08:05:41.260Z,25.85
2023-05-05T08:06:48.172Z,25.87
2023-05-05T08:07:55.793Z,25.88
2023-05-05T08:09:03.194Z,25.89
2023-05-05T08:10:13.127Z,25.90
2023-05-05T08:11:22.626Z,25.92
2023-05-05T08:12:30.302Z,25.92
2023-05-05T08:13:38.077Z,25.94
2023-05-05T08:14:45.716Z,25.95
2023-05-05T08:15:54.362Z,25.96
2023-05-05T08:17:02.067Z,25.97
2023-05-05T08:18:09.845Z,25.98
2023-05-05T08:19:28.764Z,26.00
2023-05-05T08:20:38.320Z,26.01
2023-05-05T08:21:45.078Z,26.02
2023-05-05T08:22:54.142Z,26.03
2023-05-05T08:24:01.900Z,26.04
2023-05-05T08:25:09.448Z,26.05
2023-05-05T08:26:18.137Z,26.06
2023-05-05T08:27:26.561Z,26.07
2023-05-05T08:28:35.643Z,26.08
2023-05-05T08:29:42.853Z,26.09
2023-05-05T08:30:52.323Z,26.11
2023-05-05T08:32:00.490Z,26.13
2023-05-05T08:33:08.904Z,26.13
2023-05-05T08:34:17.896Z,26.14
2023-05-05T08:35:25.366Z,26.15
2023-05-05T08:36:34.238Z,26.16
2023-05-05T08:37:42.133Z,26.18
2023-05-05T08:38:50.035Z,26.19
2023-05-05T08:39:59.325Z,26.19
2023-05-05T08:41:08.652Z,26.21
2023-05-05T08:42:28.994Z,26.21
2023-05-05T08:43:40.725Z,26.23
2023-05-05T08:44:48.769Z,26.24
2023-05-05T08:45:56.528Z,26.26
2023-05-05T08:47:05.760Z,26.27
2023-05-05T08:48:13.214Z,26.28
2023-05-05T08:49:21.276Z,26.28
2023-05-05T08:50:30.445Z,26.30
2023-05-05T08:51:42.432Z,26.31
2023-05-05T08:52:50.702Z,26.32
2023-05-05T08:54:01.233Z,26.33
2023-05-05T08:55:16.830Z,26.34
2023-05-05T08:56:29.450Z,26.35
2023-05-05T08:57:45.690Z,26.36
2023-05-05T08:58:53.770Z,26.38
2023-05-05T09:00:02.118Z,26.38
2023-05-05T09:01:09.430Z,26.40
2023-05-05T09:02:17.362Z,26.40
2023-05-05T09:03:25.005Z,26.41
2023-05-05T09:04:33.123Z,26.43
2023-05-05T09:05:40.685Z,26.44
2023-05-05T09:06:47.425Z,26.45
2023-05-05T09:07:54.935Z,26.46
2023-05-05T09:09:02.453Z,26.46
2023-05-05T09:10:12.394Z,26.47
2023-05-05T09:11:19.557Z,26.49
2023-05-05T09:12:29.898Z,26.49
2023-05-05T09:14:59.031Z,26.52
2023-05-05T09:16:06.800Z,26.53
2023-05-05T09:17:27.977Z,26.54
2023-05-05T09:18:34.699Z,26.55
2023-05-05T09:20:11.055Z,26.56
2023-05-05T09:21:26.208Z,26.57
2023-05-05T09:22:42.149Z,26.57
2023-05-05T09:24:10.415Z,26.59
2023-05-05T09:25:21.963Z,26.60
2023-05-05T09:26:29.564Z,26.60
2023-05-05T09:27:41.194Z,26.61
2023-05-05T09:28:55.102Z,26.62
2023-05-05T09:30:01.970Z,26.63
2023-05-05T09:31:16.950Z,26.65
2023-05-05T09:32:23.922Z,26.66
2023-05-05T09:33:32.697Z,26.66
2023-05-05T09:34:39.781Z,26.68
2023-05-05T09:35:56.254Z,26.68
2023-05-05T09:37:03.264Z,26.70
2023-05-05T09:38:16.636Z,26.71
2023-05-05T09:39:23.234Z,26.72
2023-05-05T09:40:30.044Z,26.73
2023-05-05T09:41:44.835Z,26.74
2023-05-05T09:43:02.056Z,26.75
2023-05-05T09:44:09.956Z,26.76
2023-05-05T09:45:29.794Z,26.77
2023-05-05T09:46:37.609Z,26.77
2023-05-05T09:47:44.368Z,26.79
2023-05-05T09:48:52.479Z,26.81
2023-05-05T09:50:00.894Z,26.81
2023-05-05T09:51:08.637Z,26.82
2023-05-05T09:52:17.668Z,26.83
2023-05-05T09:53:26.724Z,26.84
2023-05-05T09:54:37.279Z,26.84
2023-05-05T09:55:45.959Z,26.85
2023-05-05T09:56:53.790Z,26.86
2023-05-05T09:58:23.646Z,26.87
2023-05-05T09:59:32.188Z,26.88
2023-05-05T10:00:41.651Z,26.89
2023-05-05T10:01:50.353Z,26.89
2023-05-05T10:02:58.862Z,26.90
2023-05-05T10:04:07.049Z,26.91
2023-05-05T10:05:16.193Z,26.92
2023-05-05T10:06:23.621Z,26.94
2023-05-05T10:07:30.436Z,26.95
2023-05-05T10:08:37.890Z,26.96
2023-05-05T10:09:44.529Z,26.97
2023-05-05T10:11:05.716Z,26.98
2023-05-05T10:12:14.092Z,26.99
2023-05-05T10:13:23.878Z,27.01
2023-05-05T10:14:32.377Z,27.01
2023-05-05T10:15:39.773Z,27.02
2023-05-05T10:16:54.787Z,27.03
2023-05-05T10:18:07.042Z,27.04
2023-05-05T10:19:16.109Z,27.05
2023-05-05T10:20:22.816Z,27.06
2023-05-05T10:21:29.601Z,27.07
2023-05-05T10:22:37.990Z,27.08
2023-05-05T10:23:50.726Z,27.09
2023-05-05T10:25:11.486Z,27.10
2023-05-05T10:26:18.871Z,27.11
2023-05-05T10:27:26.655Z,27.11
2023-05-05T10:28:47.615Z,27.12
2023-05-05T10:30:06.945Z,27.13
2023-05-05T10:31:26.360Z,27.14
2023-05-05T10:33:07.953Z,27.15
2023-05-05T10:34:37.932Z,27.16
2023-05-05T10:35:45.999Z,27.16
2023-05-05T10:36:55.134Z,27.17
2023-05-05T10:38:04.617Z,27.19
2023-05-05T10:39:13.084Z,27.19
2023-05-05T10:40:21.091Z,27.21
2023-05-05T10:41:29.084Z,27.23
2023-05-05T10:42:37.341Z,27.23
2023-05-05T10:43:44.120Z,27.24
2023-05-05T10:44:54.726Z,27.25
2023-05-05T10:46:01.762Z,27.26
2023-05-05T10:47:08.912Z,27.27
2023-05-05T10:48:21.863Z,27.28
2023-05-05T10:49:44.601Z,27.29
2023-05-05T10:50:54.520Z,27.30
2023-05-05T10:52:22.945Z,27.31
2023-05-05T10:53:32.886Z,27.32
2023-05-05T10:54:58.087Z,27.33
2023-05-05T10:56:08.742Z,27.34
2023-05-05T10:57:16.564Z,27.35
2023-05-05T10:58:50.981Z,27.35
2023-05-05T10:59:59.475Z,27.37
2023-05-05T11:01:08.676Z,27.37
2023-05-05T11:02:23.631Z,27.39
2023-05-05T11:03:30.906Z,27.39
2023-05-05T11:04:40.477Z,27.41
2023-05-05T11:06:10.949Z,27.42
2023-05-05T11:07:24.721Z,27.42
2023-05-05T11:08:40.498Z,27.43
2023-05-05T11:10:03.130Z,27.44
2023-05-05T11:11:14.760Z,27.46
2023-05-05T11:12:23.278Z,27.45
2023-05-05T11:13:31.717Z,27.46
2023-05-05T11:14:38.954Z,27.47
2023-05-05T11:15:45.795Z,27.48
2023-05-05T11:16:52.889Z,27.50
2023-05-05T11:18:01.140Z,27.51
2023-05-05T11:19:49.528Z,27.52
2023-05-05T11:21:17.464Z,27.53
2023-05-05T11:22:24.261Z,27.53
2023-05-05T11:23:30.860Z,27.54
2023-05-05T11:24:37.562Z,27.56
2023-05-05T11:25:48.499Z,27.57
2023-05-05T11:26:55.055Z,27.58
2023-05-05T11:28:19.131Z,27.58
2023-05-05T11:29:27.009Z,27.59
2023-05-05T11:30:34.403Z,27.60
2023-05-05T11:31:41.365Z,27.61
2023-05-05T11:33:27.829Z,27.62
2023-05-05T11:34:35.088Z,27.63
2023-05-05T11:36:05.774Z,27.64
2023-05-05T11:37:17.783Z,27.65
2023-05-05T11:39:01.687Z,27.66
2023-05-05T11:40:27.070Z,27.67
2023-05-05T11:41:55.408Z,27.67
2023-05-05T11:43:09.885Z,27.68
2023-05-05T11:44:18.860Z,27.69
2023-05-05T11:45:26.925Z,27.70
2023-05-05T11:46:35.057Z,27.72
2023-05-05T11:47:42.667Z,27.72
2023-05-05T11:48:50.517Z,27.73
2023-05-05T11:49:57.865Z,27.74
2023-05-05T11:51:06.849Z,27.76
2023-05-05T11:52:16.140Z,27.77
2023-05-05T11:53:23.092Z,27.78
2023-05-05T11:54:31.176Z,27.78
2023-05-05T11:55:37.993Z,27.80
2023-05-05T11:56:53.583Z,27.81
2023-05-05T11:58:00.655Z,27.81
2023-05-05T11:59:11.926Z,27.82
2023-05-05T12:00:19.093Z,27.84
2023-05-05T12:01:26.840Z,27.84
2023-05-05T12:02:34.358Z,27.84
2023-05-05T12:03:46.917Z,27.85
2023-05-05T12:04:54.492Z,27.86
2023-05-05T12:06:01.829Z,27.87
2023-05-05T12:07:08.966Z,27.89
2023-05-05T12:08:18.769Z,27.89
2023-05-05T12:09:25.595Z,27.89
2023-05-05T12:10:32.680Z,27.91
2023-05-05T12:11:54.705Z,27.92
2023-05-05T12:13:02.912Z,27.93
2023-05-05T12:14:13.470Z,27.93
2023-05-05T12:15:30.909Z,27.93
2023-05-05T12:16:38.780Z,27.94
2023-05-05T12:17:47.839Z,27.95
2023-05-05T12:19:09.118Z,27.96
2023-05-05T12:20:16.091Z,27.96
2023-05-05T12:21:24.172Z,27.97
2023-05-05T12:22:31.721Z,27.98
2023-05-05T12:23:43.024Z,27.99
2023-05-05T12:25:03.543Z,28.00
2023-05-05T12:26:25.561Z,28.01
2023-05-05T12:27:33.699Z,28.02
2023-05-05T12:28:50.513Z,28.03
2023-05-05T12:29:58.731Z,28.03
2023-05-05T12:31:06.989Z,28.04
2023-05-05T12:32:26.202Z,28.05
2023-05-05T12:33:34.683Z,28.06
2023-05-05T12:34:42.715Z,28.06
2023-05-05T12:35:49.284Z,28.07
2023-05-05T12:36:57.587Z,28.08
2023-05-05T12:38:05.750Z,28.08
2023-05-05T12:39:13.881Z,28.10
2023-05-05T12:40:51.170Z,28.10
2023-05-05T12:42:06.462Z,28.11
2023-05-05T12:43:36.122Z,28.12
2023-05-05T12:44:46.138Z,28.12
2023-05-05T12:46:13.843Z,28.13
2023-05-05T12:47:39.149Z,28.14
2023-05-05T12:48:48.305Z,28.14
2023-05-05T12:49:56.519Z,28.15
2023-05-05T12:51:18.433Z,28.16
2023-05-05T12:52:26.182Z,28.16
2023-05-05T12:53:36.912Z,28.17
2023-05-05T12:55:02.702Z,28.19
2023-05-05T12:56:33.470Z,28.19
2023-05-05T12:57:41.725Z,28.19
2023-05-05T12:58:50.313Z,28.21
2023-05-05T12:59:57.885Z,28.22
2023-05-05T13:01:12.568Z,28.22
2023-05-05T13:02:21.415Z,28.23
2023-05-05T13:03:29.227Z,28.24
2023-05-05T13:04:39.922Z,28.25
2023-05-05T13:05:47.447Z,28.25
2023-05-05T13:07:13.278Z,28.26
2023-05-05T13:08:20.336Z,28.27
2023-05-05T13:09:40.518Z,28.27
2023-05-05T13:11:01.136Z,28.29
2023-05-05T13:12:09.589Z,28.30
2023-05-05T13:13:16.415Z,28.31
2023-05-05T13:14:23.216Z,28.31
2023-05-05T13:15:30.094Z,28.33
2023-05-05T13:16:37.143Z,28.34
2023-05-05T13:17:43.713Z,28.34
2023-05-05T13:18:51.224Z,28.35
2023-05-05T13:19:57.851Z,28.36
2023-05-05T13:21:04.722Z,28.36
2023-05-05T13:22:11.691Z,28.37
2023-05-05T13:23:18.753Z,28.38
2023-05-05T13:24:38.195Z,28.39
2023-05-05T13:25:52.969Z,28.39
2023-05-05T13:27:00.306Z,28.40
2023-05-05T13:28:07.168Z,28.41
2023-05-05T13:29:17.221Z,28.41
2023-05-05T13:30:24.337Z,28.42
2023-05-05T13:31:31.155Z,28.43
2023-05-05T13:32:38.518Z,28.43
2023-05-05T13:33:45.327Z,28.44
2023-05-05T13:34:55.657Z,28.45
2023-05-05T13:36:05.265Z,28.46
2023-05-05T13:37:11.811Z,28.46
2023-05-05T13:38:18.394Z,28.47
2023-05-05T13:39:26.128Z,28.47
2023-05-05T13:40:33.524Z,28.48
2023-05-05T13:41:41.232Z,28.49
2023-05-05T13:42:48.234Z,28.49
2023-05-05T13:43:55.121Z,28.50
2023-05-05T13:45:02.303Z,28.50
2023-05-05T13:46:22.257Z,28.51
2023-05-05T13:47:29.354Z,28.52
2023-05-05T13:48:36.353Z,28.53
2023-05-05T13:49:43.274Z,28.53
2023-05-05T13:50:50.335Z,28.53
2023-05-05T13:51:57.481Z,28.54
2023-05-05T13:53:04.962Z,28.54
2023-05-05T13:54:12.313Z,28.55
2023-05-05T13:55:22.586Z,28.56
2023-05-05T13:56:32.722Z,28.57
2023-05-05T13:57:39.567Z,28.57
2023-05-05T13:58:46.940Z,28.57
2023-05-05T13:59:53.865Z,28.58
2023-05-05T14:01:00.428Z,28.59
2023-05-05T14:02:09.822Z,28.60
2023-05-05T14:03:16.868Z,28.61
2023-05-05T14:04:24.158Z,28.61
2023-05-05T14:05:31.134Z,28.62
2023-05-05T14:06:38.447Z,28.63
2023-05-05T14:07:45.168Z,28.64
2023-05-05T14:08:52.374Z,28.64
2023-05-05T14:09:59.761Z,28.65
2023-05-05T14:11:06.613Z,28.66
2023-05-05T14:12:16.748Z,28.66
2023-05-05T14:13:24.240Z,28.67
2023-05-05T14:14:34.748Z,28.67
2023-05-05T14:15:43.089Z,28.68
2023-05-05T14:16:50.610Z,28.68
2023-05-05T14:17:58.648Z,28.69
2023-05-05T14:19:05.773Z,28.69
2023-05-05T14:20:13.648Z,28.70
2023-05-05T14:21:20.517Z,28.70
2023-05-05T14:22:28.110Z,28.71
2023-05-05T14:23:34.936Z,28.71
2023-05-05T14:24:41.477Z,28.72
2023-05-05T14:25:48.860Z,28.72
2023-05-05T14:26:56.575Z,28.73
2023-05-05T14:28:06.844Z,28.74
2023-05-05T14:29:13.857Z,28.75
2023-05-05T14:30:21.250Z,28.75
2023-05-05T14:31:28.806Z,28.76
2023-05-05T14:32:36.044Z,28.77
2023-05-05T14:33:42.936Z,28.77
2023-05-05T14:34:50.523Z,28.77
2023-05-05T14:35:57.483Z,28.78
2023-05-05T14:37:04.728Z,28.79
2023-05-05T14:38:11.848Z,28.79
2023-05-05T14:39:20.320Z,28.80
2023-05-05T14:40:28.742Z,28.80
2023-05-05T14:41:37.681Z,28.81
2023-05-05T14:42:44.312Z,28.82
2023-05-05T14:43:52.581Z,28.83
2023-05-05T14:44:59.668Z,28.83
2023-05-05T14:46:08.099Z,28.84
2023-05-05T14:47:18.341Z,28.84
2023-05-05T14:48:28.426Z,28.85
2023-05-05T14:49:36.569Z,28.85
2023-05-05T14:50:44.332Z,28.86
2023-05-05T14:51:51.945Z,28.87
2023-05-05T14:52:59.686Z,28.88
2023-05-05T14:54:14.295Z,28.89
2023-05-05T14:55:28.255Z,28.89
2023-05-05T14:56:35.200Z,28.89
2023-05-05T14:57:42.705Z,28.90
2023-05-05T14:58:49.856Z,28.91
2023-05-05T14:59:58.328Z,28.92
2023-05-05T15:01:06.144Z,28.92
2023-05-05T15:02:13.732Z,28.93
2023-05-05T15:03:21.634Z,28.93
2023-05-05T15:04:28.779Z,28.93
2023-05-05T15:05:37.238Z,28.94